sensor_id;sensor_type;location;lat;lon;timestamp;pressure;altitude;pressure_sealevel;temperature;humidity
21547;BME280;41275;51.912;4.388;2023-07-31T00:00:31;100977.41;;;23.69;57.20
21547;BME280;41275;51.912;4.388;2023-07-31T00:05:53;100957.09;;;23.49;57.25
21547;BME280;41275;51.912;4.388;2023-07-31T00:11:14;100966.09;;;23.36;57.61
21547;BME280;41275;51.912;4.388;2023-07-31T00:16:35;100969.53;;;23.50;57.73
21547;BME280;41275;51.912;4.388;2023-07-31T00:21:56;100953.13;;;23.47;56.89
21547;BME280;41275;51.912;4.388;2023-07-31T00:27:18;100956.91;;;23.15;57.42
21547;BME280;41275;51.912;4.388;2023-07-31T00:32:39;100951.06;;;22.99;58.05
21547;BME280;41275;51.912;4.388;2023-07-31T00:38:00;100958.34;;;22.98;58.24
21547;BME280;41275;51.912;4.388;2023-07-31T00:43:21;100961.19;;;22.93;58.57
21547;BME280;41275;51.912;4.388;2023-07-31T00:48:43;100969.28;;;22.93;58.53
21547;BME280;41275;51.912;4.388;2023-07-31T00:54:06;100946.03;;;22.84;58.55
21547;BME280;41275;51.912;4.388;2023-07-31T00:59:27;100967.94;;;22.68;58.59
21547;BME280;41275;51.912;4.388;2023-07-31T01:04:48;100949.88;;;22.55;59.20
21547;BME280;41275;51.912;4.388;2023-07-31T01:10:21;100952.06;;;22.67;59.16
21547;BME280;41275;51.912;4.388;2023-07-31T01:15:43;100954.53;;;22.77;59.28
21547;BME280;41275;51.912;4.388;2023-07-31T01:27:15;100950.50;;;23.11;59.34
21547;BME280;41275;51.912;4.388;2023-07-31T01:32:40;100935.59;;;23.13;59.20
21547;BME280;41275;51.912;4.388;2023-07-31T01:38:04;100928.72;;;23.30;58.95
21547;BME280;41275;51.912;4.388;2023-07-31T01:43:25;100931.81;;;23.45;58.36
21547;BME280;41275;51.912;4.388;2023-07-31T01:48:47;100919.00;;;23.51;57.91
21547;BME280;41275;51.912;4.388;2023-07-31T01:54:08;100900.09;;;23.51;57.57
21547;BME280;41275;51.912;4.388;2023-07-31T01:59:29;100906.16;;;23.65;57.11
21547;BME280;41275;51.912;4.388;2023-07-31T02:04:50;100878.28;;;23.79;56.96
21547;BME280;41275;51.912;4.388;2023-07-31T02:10:12;100890.69;;;23.88;56.12
21547;BME280;41275;51.912;4.388;2023-07-31T02:15:33;100874.97;;;23.90;56.01
21547;BME280;41275;51.912;4.388;2023-07-31T02:20:54;100891.81;;;23.87;55.34
21547;BME280;41275;51.912;4.388;2023-07-31T02:26:15;100880.38;;;23.90;55.03
21547;BME280;41275;51.912;4.388;2023-07-31T02:31:37;100859.53;;;23.91;54.44
21547;BME280;41275;51.912;4.388;2023-07-31T02:36:58;100869.56;;;23.99;54.11
21547;BME280;41275;51.912;4.388;2023-07-31T02:42:19;100860.34;;;24.00;53.56
21547;BME280;41275;51.912;4.388;2023-07-31T02:47:40;100857.97;;;23.98;53.57
21547;BME280;41275;51.912;4.388;2023-07-31T02:53:02;100851.63;;;24.03;53.24
21547;BME280;41275;51.912;4.388;2023-07-31T02:58:23;100839.06;;;24.07;53.40
21547;BME280;41275;51.912;4.388;2023-07-31T03:03:44;100831.91;;;24.11;52.98
21547;BME280;41275;51.912;4.388;2023-07-31T03:09:06;100819.84;;;24.17;52.88
21547;BME280;41275;51.912;4.388;2023-07-31T03:14:27;100819.34;;;24.24;52.32
21547;BME280;41275;51.912;4.388;2023-07-31T03:19:48;100819.03;;;24.25;52.42
21547;BME280;41275;51.912;4.388;2023-07-31T03:25:10;100816.31;;;24.08;52.67
21547;BME280;41275;51.912;4.388;2023-07-31T03:30:31;100821.25;;;23.49;53.68
21547;BME280;41275;51.912;4.388;2023-07-31T03:35:53;100816.53;;;23.15;54.50
21547;BME280;41275;51.912;4.388;2023-07-31T03:41:14;100808.56;;;23.10;54.95
21547;BME280;41275;51.912;4.388;2023-07-31T03:46:35;100801.03;;;22.98;55.63
21547;BME280;41275;51.912;4.388;2023-07-31T03:51:57;100783.94;;;22.80;55.99
21547;BME280;41275;51.912;4.388;2023-07-31T03:57:18;100777.41;;;22.72;56.37
21547;BME280;41275;51.912;4.388;2023-07-31T04:02:39;100775.97;;;22.75;56.65
21547;BME280;41275;51.912;4.388;2023-07-31T04:08:01;100772.19;;;22.76;56.66
21547;BME280;41275;51.912;4.388;2023-07-31T04:13:22;100759.59;;;22.71;57.25
21547;BME280;41275;51.912;4.388;2023-07-31T04:18:43;100757.38;;;22.65;57.53
21547;BME280;41275;51.912;4.388;2023-07-31T04:24:05;100757.00;;;22.58;57.79
21547;BME280;41275;51.912;4.388;2023-07-31T04:29:26;100751.09;;;22.55;57.85
21547;BME280;41275;51.912;4.388;2023-07-31T04:34:47;100736.50;;;22.48;58.07
21547;BME280;41275;51.912;4.388;2023-07-31T04:40:09;100739.66;;;22.50;58.13
21547;BME280;41275;51.912;4.388;2023-07-31T04:45:30;100732.78;;;22.44;58.02
21547;BME280;41275;51.912;4.388;2023-07-31T04:50:51;100725.63;;;22.39;58.28
21547;BME280;41275;51.912;4.388;2023-07-31T04:56:13;100727.72;;;22.42;58.61
21547;BME280;41275;51.912;4.388;2023-07-31T05:01:35;100727.25;;;22.40;58.70
21547;BME280;41275;51.912;4.388;2023-07-31T05:06:56;100719.00;;;22.45;58.94
21547;BME280;41275;51.912;4.388;2023-07-31T05:12:17;100703.31;;;22.47;58.84
21547;BME280;41275;51.912;4.388;2023-07-31T05:17:39;100711.09;;;22.49;59.08
21547;BME280;41275;51.912;4.388;2023-07-31T05:23:00;100703.50;;;22.51;58.95
21547;BME280;41275;51.912;4.388;2023-07-31T05:28:22;100693.34;;;22.48;59.38
21547;BME280;41275;51.912;4.388;2023-07-31T05:33:43;100687.63;;;22.49;59.65
21547;BME280;41275;51.912;4.388;2023-07-31T05:39:04;100685.28;;;22.57;59.50
21547;BME280;41275;51.912;4.388;2023-07-31T05:44:29;100682.59;;;22.57;59.57
21547;BME280;41275;51.912;4.388;2023-07-31T05:49:51;100673.88;;;22.60;59.62
21547;BME280;41275;51.912;4.388;2023-07-31T05:55:13;100687.41;;;22.68;59.86
21547;BME280;41275;51.912;4.388;2023-07-31T06:00:35;100678.66;;;22.71;59.64
21547;BME280;41275;51.912;4.388;2023-07-31T06:05:56;100685.34;;;22.74;59.99
21547;BME280;41275;51.912;4.388;2023-07-31T06:11:19;100675.19;;;22.71;60.03
21547;BME280;41275;51.912;4.388;2023-07-31T06:16:40;100667.75;;;22.68;59.57
21547;BME280;41275;51.912;4.388;2023-07-31T06:22:02;100664.09;;;22.72;60.24
21547;BME280;41275;51.912;4.388;2023-07-31T06:27:23;100646.31;;;22.71;60.37
21547;BME280;41275;51.912;4.388;2023-07-31T06:32:45;100650.13;;;22.79;60.22
21547;BME280;41275;51.912;4.388;2023-07-31T06:38:06;100651.75;;;22.80;60.64
21547;BME280;41275;51.912;4.388;2023-07-31T06:43:27;100636.03;;;22.82;60.46
21547;BME280;41275;51.912;4.388;2023-07-31T06:48:48;100637.97;;;22.90;60.32
21547;BME280;41275;51.912;4.388;2023-07-31T06:54:10;100626.91;;;22.92;60.64
21547;BME280;41275;51.912;4.388;2023-07-31T06:59:31;100639.44;;;22.96;60.61
21547;BME280;41275;51.912;4.388;2023-07-31T07:04:52;100633.44;;;22.99;60.55
21547;BME280;41275;51.912;4.388;2023-07-31T07:10:14;100630.41;;;23.01;60.81
21547;BME280;41275;51.912;4.388;2023-07-31T07:15:35;100640.75;;;23.08;60.72
21547;BME280;41275;51.912;4.388;2023-07-31T07:20:56;100636.59;;;23.10;60.75
21547;BME280;41275;51.912;4.388;2023-07-31T07:26:19;100636.94;;;23.17;60.54
21547;BME280;41275;51.912;4.388;2023-07-31T07:31:40;100640.13;;;23.19;60.64
21547;BME280;41275;51.912;4.388;2023-07-31T07:37:02;100642.50;;;23.12;60.65
21547;BME280;41275;51.912;4.388;2023-07-31T07:42:23;100639.00;;;23.20;60.70
21547;BME280;41275;51.912;4.388;2023-07-31T07:47:44;100639.81;;;23.30;60.75
21547;BME280;41275;51.912;4.388;2023-07-31T07:53:05;100633.94;;;23.27;60.94
21547;BME280;41275;51.912;4.388;2023-07-31T07:58:27;100637.59;;;23.32;60.80
21547;BME280;41275;51.912;4.388;2023-07-31T08:03:48;100629.00;;;23.30;60.88
21547;BME280;41275;51.912;4.388;2023-07-31T08:09:09;100617.13;;;23.31;61.04
21547;BME280;41275;51.912;4.388;2023-07-31T08:14:31;100626.00;;;23.31;61.02
21547;BME280;41275;51.912;4.388;2023-07-31T08:19:52;100627.25;;;23.34;60.77
21547;BME280;41275;51.912;4.388;2023-07-31T08:25:13;100620.78;;;23.35;61.18
21547;BME280;41275;51.912;4.388;2023-07-31T08:30:35;100618.38;;;23.42;61.19
21547;BME280;41275;51.912;4.388;2023-07-31T08:35:56;100607.56;;;23.42;61.06
21547;BME280;41275;51.912;4.388;2023-07-31T08:41:17;100614.88;;;23.50;61.43
21547;BME280;41275;51.912;4.388;2023-07-31T08:46:39;100608.22;;;23.56;61.03
21547;BME280;41275;51.912;4.388;2023-07-31T08:52:01;100610.13;;;23.56;61.16
21547;BME280;41275;51.912;4.388;2023-07-31T08:57:22;100604.38;;;23.57;61.15
21547;BME280;41275;51.912;4.388;2023-07-31T09:02:48;100613.94;;;23.63;61.38
21547;BME280;41275;51.912;4.388;2023-07-31T09:08:12;100609.47;;;23.85;61.72
21547;BME280;41275;51.912;4.388;2023-07-31T09:13:34;100613.44;;;23.96;61.57
21547;BME280;41275;51.912;4.388;2023-07-31T09:18:56;100602.78;;;23.99;61.58
21547;BME280;41275;51.912;4.388;2023-07-31T09:24:28;100593.50;;;24.18;61.58
21547;BME280;41275;51.912;4.388;2023-07-31T09:29:58;100609.84;;;24.30;61.49
21547;BME280;41275;51.912;4.388;2023-07-31T09:40:46;100601.78;;;24.13;61.44
21547;BME280;41275;51.912;4.388;2023-07-31T09:46:13;100582.53;;;24.14;61.44
21547;BME280;41275;51.912;4.388;2023-07-31T09:51:39;100592.03;;;24.29;61.25
21547;BME280;41275;51.912;4.388;2023-07-31T09:57:01;100586.13;;;24.44;61.16
21547;BME280;41275;51.912;4.388;2023-07-31T10:02:22;100585.38;;;24.65;60.68
21547;BME280;41275;51.912;4.388;2023-07-31T10:07:53;100584.69;;;24.77;60.08
21547;BME280;41275;51.912;4.388;2023-07-31T10:13:16;100581.50;;;24.95;59.83
21547;BME280;41275;51.912;4.388;2023-07-31T10:18:38;100597.81;;;25.16;59.38
21547;BME280;41275;51.912;4.388;2023-07-31T10:24:03;100598.75;;;25.20;58.74
21547;BME280;41275;51.912;4.388;2023-07-31T10:29:28;100590.63;;;25.20;58.55
21547;BME280;41275;51.912;4.388;2023-07-31T10:34:51;100594.59;;;25.23;58.23
21547;BME280;41275;51.912;4.388;2023-07-31T10:40:16;100595.44;;;25.36;57.97
21547;BME280;41275;51.912;4.388;2023-07-31T10:45:44;100582.47;;;25.41;57.51
21547;BME280;41275;51.912;4.388;2023-07-31T10:51:12;100592.25;;;25.55;57.33
21547;BME280;41275;51.912;4.388;2023-07-31T10:56:37;100568.47;;;25.73;56.78
21547;BME280;41275;51.912;4.388;2023-07-31T11:01:59;100560.88;;;25.87;56.37
21547;BME280;41275;51.912;4.388;2023-07-31T11:07:46;100570.72;;;25.37;56.83
21547;BME280;41275;51.912;4.388;2023-07-31T11:13:07;100567.13;;;25.45;56.80
21547;BME280;41275;51.912;4.388;2023-07-31T11:18:29;100558.09;;;25.75;56.54
21547;BME280;41275;51.912;4.388;2023-07-31T11:23:52;100555.69;;;25.94;55.77
21547;BME280;41275;51.912;4.388;2023-07-31T11:29:14;100560.81;;;25.75;56.02
21547;BME280;41275;51.912;4.388;2023-07-31T11:34:51;100550.69;;;25.84;55.70
21547;BME280;41275;51.912;4.388;2023-07-31T11:40:12;100555.00;;;26.09;55.69
21547;BME280;41275;51.912;4.388;2023-07-31T11:45:34;100556.28;;;26.24;54.95
21547;BME280;41275;51.912;4.388;2023-07-31T11:51:01;100594.69;;;26.14;54.65
21547;BME280;41275;51.912;4.388;2023-07-31T11:56:24;100558.66;;;26.26;54.66
21547;BME280;41275;51.912;4.388;2023-07-31T12:01:46;100547.59;;;26.55;54.22
21547;BME280;41275;51.912;4.388;2023-07-31T12:07:07;100542.72;;;26.36;54.53
21547;BME280;41275;51.912;4.388;2023-07-31T12:12:28;100545.22;;;26.29;54.28
21547;BME280;41275;51.912;4.388;2023-07-31T12:17:49;100543.00;;;25.86;54.66
21547;BME280;41275;51.912;4.388;2023-07-31T12:23:22;100530.34;;;25.78;55.15
21547;BME280;41275;51.912;4.388;2023-07-31T12:28:50;100529.53;;;25.77;55.35
21547;BME280;41275;51.912;4.388;2023-07-31T12:34:18;100497.16;;;26.05;55.09
21547;BME280;41275;51.912;4.388;2023-07-31T12:39:41;100513.09;;;26.43;54.39
21547;BME280;41275;51.912;4.388;2023-07-31T12:45:03;100506.38;;;25.34;55.85
21547;BME280;41275;51.912;4.388;2023-07-31T12:50:25;100512.47;;;25.10;56.73
21547;BME280;41275;51.912;4.388;2023-07-31T12:55:46;100503.31;;;25.24;57.07
21547;BME280;41275;51.912;4.388;2023-07-31T13:01:08;100505.88;;;25.53;57.35
21547;BME280;41275;51.912;4.388;2023-07-31T13:06:31;100482.81;;;26.41;56.33
21547;BME280;41275;51.912;4.388;2023-07-31T13:11:52;100482.50;;;26.83;55.01
21547;BME280;41275;51.912;4.388;2023-07-31T13:17:13;100487.56;;;26.57;54.17
21547;BME280;41275;51.912;4.388;2023-07-31T13:22:35;100496.25;;;25.43;55.39
21547;BME280;41275;51.912;4.388;2023-07-31T13:27:56;100478.84;;;24.90;56.36
21547;BME280;41275;51.912;4.388;2023-07-31T13:33:17;100482.16;;;24.75;57.77
21547;BME280;41275;51.912;4.388;2023-07-31T13:38:38;100477.34;;;24.81;58.33
21547;BME280;41275;51.912;4.388;2023-07-31T13:44:00;100461.78;;;24.78;58.53
21547;BME280;41275;51.912;4.388;2023-07-31T13:49:21;100469.31;;;24.72;58.97
21547;BME280;41275;51.912;4.388;2023-07-31T13:54:42;100468.84;;;24.70;59.49
21547;BME280;41275;51.912;4.388;2023-07-31T14:00:04;100444.47;;;24.70;59.72
21547;BME280;41275;51.912;4.388;2023-07-31T14:05:25;100451.78;;;24.90;59.83
21547;BME280;41275;51.912;4.388;2023-07-31T14:10:47;100438.59;;;24.89;60.05
21547;BME280;41275;51.912;4.388;2023-07-31T14:16:08;100440.03;;;24.86;59.78
21547;BME280;41275;51.912;4.388;2023-07-31T14:21:29;100436.75;;;24.81;59.72
21547;BME280;41275;51.912;4.388;2023-07-31T14:26:50;100427.47;;;24.69;60.03
21547;BME280;41275;51.912;4.388;2023-07-31T14:32:12;100426.47;;;24.53;59.97
21547;BME280;41275;51.912;4.388;2023-07-31T14:37:43;100426.34;;;24.49;60.01
21547;BME280;41275;51.912;4.388;2023-07-31T14:43:05;100421.44;;;24.43;60.33
21547;BME280;41275;51.912;4.388;2023-07-31T14:48:27;100408.25;;;24.41;60.07
21547;BME280;41275;51.912;4.388;2023-07-31T14:53:48;100396.22;;;24.30;60.52
21547;BME280;41275;51.912;4.388;2023-07-31T14:59:10;100384.41;;;24.35;60.53
21547;BME280;41275;51.912;4.388;2023-07-31T15:04:32;100370.47;;;24.24;60.66
21547;BME280;41275;51.912;4.388;2023-07-31T15:09:53;100364.16;;;24.20;60.70
21547;BME280;41275;51.912;4.388;2023-07-31T15:15:15;100356.19;;;24.23;60.81
21547;BME280;41275;51.912;4.388;2023-07-31T15:20:36;100341.28;;;24.17;60.59
21547;BME280;41275;51.912;4.388;2023-07-31T15:25:57;100342.53;;;24.20;60.96
21547;BME280;41275;51.912;4.388;2023-07-31T15:31:19;100318.53;;;24.18;61.27
21547;BME280;41275;51.912;4.388;2023-07-31T15:36:40;100314.50;;;24.24;61.15
21547;BME280;41275;51.912;4.388;2023-07-31T15:42:02;100326.91;;;24.25;60.79
21547;BME280;41275;51.912;4.388;2023-07-31T15:47:23;100326.91;;;24.25;61.04
21547;BME280;41275;51.912;4.388;2023-07-31T15:52:45;100327.28;;;24.36;61.04
21547;BME280;41275;51.912;4.388;2023-07-31T15:58:06;100318.34;;;24.44;61.09
21547;BME280;41275;51.912;4.388;2023-07-31T16:03:27;100314.78;;;24.53;60.75
21547;BME280;41275;51.912;4.388;2023-07-31T16:08:49;100319.06;;;24.54;60.77
21547;BME280;41275;51.912;4.388;2023-07-31T16:14:10;100300.34;;;24.48;60.76
21547;BME280;41275;51.912;4.388;2023-07-31T16:19:31;100300.03;;;24.62;60.85
21547;BME280;41275;51.912;4.388;2023-07-31T16:24:52;100303.53;;;24.63;60.65
21547;BME280;41275;51.912;4.388;2023-07-31T16:30:14;100285.91;;;24.44;60.40
21547;BME280;41275;51.912;4.388;2023-07-31T16:35:35;100278.69;;;24.28;60.85
21547;BME280;41275;51.912;4.388;2023-07-31T16:40:56;100279.25;;;24.21;60.97
21547;BME280;41275;51.912;4.388;2023-07-31T16:46:17;100269.00;;;24.27;60.83
21547;BME280;41275;51.912;4.388;2023-07-31T16:51:39;100283.03;;;24.20;61.19
21547;BME280;41275;51.912;4.388;2023-07-31T16:57:00;100253.88;;;24.13;61.23
21547;BME280;41275;51.912;4.388;2023-07-31T17:02:21;100229.06;;;24.11;61.11
21547;BME280;41275;51.912;4.388;2023-07-31T17:07:42;100212.84;;;24.11;61.03
21547;BME280;41275;51.912;4.388;2023-07-31T17:13:04;100200.66;;;24.05;61.08
21547;BME280;41275;51.912;4.388;2023-07-31T17:18:25;100194.31;;;24.01;61.27
21547;BME280;41275;51.912;4.388;2023-07-31T17:23:46;100188.69;;;23.94;61.26
21547;BME280;41275;51.912;4.388;2023-07-31T17:29:10;100219.69;;;24.09;61.05
21547;BME280;41275;51.912;4.388;2023-07-31T17:34:32;100223.25;;;24.21;60.84
21547;BME280;41275;51.912;4.388;2023-07-31T17:39:53;100232.41;;;24.29;60.58
21547;BME280;41275;51.912;4.388;2023-07-31T17:45:15;100222.75;;;24.40;60.36
21547;BME280;41275;51.912;4.388;2023-07-31T17:50:38;100218.63;;;24.55;59.96
21547;BME280;41275;51.912;4.388;2023-07-31T17:55:59;100228.78;;;24.58;59.90
21547;BME280;41275;51.912;4.388;2023-07-31T18:01:21;100231.22;;;24.39;59.49
21547;BME280;41275;51.912;4.388;2023-07-31T18:06:42;100206.69;;;23.90;59.80
21547;BME280;41275;51.912;4.388;2023-07-31T18:12:03;100233.50;;;23.65;59.93
21547;BME280;41275;51.912;4.388;2023-07-31T18:17:25;100223.25;;;23.29;60.01
21547;BME280;41275;51.912;4.388;2023-07-31T18:22:46;100194.72;;;23.19;60.66
21547;BME280;41275;51.912;4.388;2023-07-31T18:28:08;100202.91;;;23.32;61.09
21547;BME280;41275;51.912;4.388;2023-07-31T18:33:29;100181.06;;;23.45;61.21
21547;BME280;41275;51.912;4.388;2023-07-31T18:38:50;100165.13;;;23.52;61.29
21547;BME280;41275;51.912;4.388;2023-07-31T18:44:11;100169.34;;;23.41;61.21
21547;BME280;41275;51.912;4.388;2023-07-31T18:49:32;100165.66;;;23.46;61.55
21547;BME280;41275;51.912;4.388;2023-07-31T18:54:54;100168.75;;;23.57;61.63
21547;BME280;41275;51.912;4.388;2023-07-31T19:00:15;100169.38;;;23.62;61.31
21547;BME280;41275;51.912;4.388;2023-07-31T19:05:38;100155.50;;;23.64;61.25
21547;BME280;41275;51.912;4.388;2023-07-31T19:11:00;100154.56;;;23.68;60.93
21547;BME280;41275;51.912;4.388;2023-07-31T19:16:22;100155.03;;;23.62;60.78
21547;BME280;41275;51.912;4.388;2023-07-31T19:21:43;100157.50;;;23.55;60.21
21547;BME280;41275;51.912;4.388;2023-07-31T19:27:05;100154.59;;;23.60;60.04
21547;BME280;41275;51.912;4.388;2023-07-31T19:32:28;100155.03;;;23.62;58.80
21547;BME280;41275;51.912;4.388;2023-07-31T19:37:49;100145.50;;;23.64;57.83
21547;BME280;41275;51.912;4.388;2023-07-31T19:43:10;100134.69;;;23.64;57.38
21547;BME280;41275;51.912;4.388;2023-07-31T19:48:31;100135.47;;;23.65;56.64
21547;BME280;41275;51.912;4.388;2023-07-31T19:53:53;100113.25;;;23.68;55.90
21547;BME280;41275;51.912;4.388;2023-07-31T19:59:14;100123.25;;;23.67;55.54
21547;BME280;41275;51.912;4.388;2023-07-31T20:04:36;100095.31;;;23.63;55.41
21547;BME280;41275;51.912;4.388;2023-07-31T20:09:57;100126.31;;;23.66;55.06
21547;BME280;41275;51.912;4.388;2023-07-31T20:15:20;100106.56;;;23.65;55.02
21547;BME280;41275;51.912;4.388;2023-07-31T20:20:42;100111.00;;;23.70;54.91
21547;BME280;41275;51.912;4.388;2023-07-31T20:26:04;100092.34;;;23.77;54.59
21547;BME280;41275;51.912;4.388;2023-07-31T20:31:25;100092.34;;;23.77;54.65
21547;BME280;41275;51.912;4.388;2023-07-31T20:36:47;100073.19;;;23.70;54.52
21547;BME280;41275;51.912;4.388;2023-07-31T20:42:08;100068.97;;;23.60;54.82
21547;BME280;41275;51.912;4.388;2023-07-31T20:47:34;100061.38;;;23.53;54.77
21547;BME280;41275;51.912;4.388;2023-07-31T20:52:56;100040.59;;;23.54;54.73
21547;BME280;41275;51.912;4.388;2023-07-31T20:58:17;100036.81;;;23.67;54.81
21547;BME280;41275;51.912;4.388;2023-07-31T21:03:39;100034.50;;;23.78;54.57
21547;BME280;41275;51.912;4.388;2023-07-31T21:09:00;100016.81;;;23.81;54.50
21547;BME280;41275;51.912;4.388;2023-07-31T21:14:21;100015.13;;;23.88;54.15
21547;BME280;41275;51.912;4.388;2023-07-31T21:19:43;100018.75;;;23.92;53.92
21547;BME280;41275;51.912;4.388;2023-07-31T21:25:05;100017.66;;;23.93;53.93
21547;BME280;41275;51.912;4.388;2023-07-31T21:30:30;100015.94;;;24.01;53.68
21547;BME280;41275;51.912;4.388;2023-07-31T21:35:51;99999.72;;;24.01;53.82
21547;BME280;41275;51.912;4.388;2023-07-31T21:41:12;99989.72;;;24.02;53.80
21547;BME280;41275;51.912;4.388;2023-07-31T21:46:33;99989.84;;;24.05;53.91
21547;BME280;41275;51.912;4.388;2023-07-31T21:51:55;99974.41;;;23.93;53.72
21547;BME280;41275;51.912;4.388;2023-07-31T21:57:16;99989.91;;;23.84;53.74
21547;BME280;41275;51.912;4.388;2023-07-31T22:02:37;99986.97;;;23.77;54.16
21547;BME280;41275;51.912;4.388;2023-07-31T22:07:59;99972.25;;;23.74;54.34
21547;BME280;41275;51.912;4.388;2023-07-31T22:13:20;99964.56;;;23.76;54.33
21547;BME280;41275;51.912;4.388;2023-07-31T22:18:41;99968.53;;;23.79;54.33
21547;BME280;41275;51.912;4.388;2023-07-31T22:24:03;99963.03;;;23.88;54.26
21547;BME280;41275;51.912;4.388;2023-07-31T22:29:24;99953.91;;;23.92;54.35
21547;BME280;41275;51.912;4.388;2023-07-31T22:34:45;99957.19;;;23.98;54.30
21547;BME280;41275;51.912;4.388;2023-07-31T22:40:07;99961.09;;;24.00;54.11
21547;BME280;41275;51.912;4.388;2023-07-31T22:45:28;99958.41;;;24.00;54.05
21547;BME280;41275;51.912;4.388;2023-07-31T22:50:50;99951.09;;;24.01;53.89
21547;BME280;41275;51.912;4.388;2023-07-31T22:56:12;99960.56;;;24.07;53.82
21547;BME280;41275;51.912;4.388;2023-07-31T23:01:34;99963.16;;;24.04;54.13
21547;BME280;41275;51.912;4.388;2023-07-31T23:06:55;99956.47;;;23.89;53.97
21547;BME280;41275;51.912;4.388;2023-07-31T23:12:17;99952.88;;;23.85;53.47
21547;BME280;41275;51.912;4.388;2023-07-31T23:17:39;99939.59;;;23.80;53.68
21547;BME280;41275;51.912;4.388;2023-07-31T23:23:00;99932.75;;;23.70;53.36
21547;BME280;41275;51.912;4.388;2023-07-31T23:28:22;99932.78;;;23.61;53.25
21547;BME280;41275;51.912;4.388;2023-07-31T23:33:43;99935.72;;;23.56;53.32
21547;BME280;41275;51.912;4.388;2023-07-31T23:39:04;99913.31;;;23.56;53.06
21547;BME280;41275;51.912;4.388;2023-07-31T23:44:26;99910.63;;;23.56;52.88
21547;BME280;41275;51.912;4.388;2023-07-31T23:49:47;99913.31;;;23.56;52.89
21547;BME280;41275;51.912;4.388;2023-07-31T23:55:09;99912.31;;;23.60;52.94
